Friday, January 19, 2018, 2:29 AM EST
Back to Local

KGED, Georgetown Sussex Co Airport

Location: Georgetown, DE, United States Lat: 38.683
Local Time: 2:29 AM EST ( 7:29 GMT) Lon: -75.367
Time Zone: US/Eastern Elev: 52 ft

Show me the last for .
Show Decoded

2018-01-19 01:54 METAR KGED 190654Z AUTO 00000KT 10SM CLR M05/M09 A3011 RMK AO2 SLP197 T10501094
                 =
2018-01-19 00:54 METAR KGED 190554Z AUTO 00000KT 10SM CLR M05/M10 A3012 RMK AO2 SLP200 T10501100
                 10006 21056 50003 =
2018-01-18 23:54 METAR KGED 190454Z AUTO 20003KT 10SM CLR M03/M10 A3014 RMK AO2 SLP205 T10331100
                 400331067 =
2018-01-18 22:54 METAR KGED 190354Z AUTO 00000KT 10SM CLR M03/M10 A3012 RMK AO2 SLP200 T10281100
                 =
2018-01-18 21:54 METAR KGED 190254Z AUTO 24003KT 10SM CLR M01/M10 A3011 RMK AO2 SLP197 T10111100
                 52011 =
2018-01-18 20:54 METAR KGED 190154Z AUTO 00000KT 10SM CLR M03/M10 A3010 RMK AO2 SLP193 T10281100
                 =
2018-01-18 19:54 METAR KGED 190054Z AUTO 22003KT 10SM CLR M02/M11 A3009 RMK AO2 SLP191 T10171106
                 =
2018-01-18 18:54 METAR KGED 182354Z AUTO 00000KT 10SM CLR 00/M11 A3008 RMK AO2 SLP186 T00001111
                 10033 20000 53021 =
2018-01-18 17:54 METAR KGED 182254Z AUTO 23003KT 10SM CLR 01/M12 A3006 RMK AO2 SLP180 T00111117 =
2018-01-18 16:54 METAR KGED 182154Z AUTO 25004KT 10SM CLR 03/M13 A3003 RMK AO2 SLP170 T00331128 =
2018-01-18 15:54 METAR KGED 182054Z AUTO 28005KT 10SM CLR 03/M13 A3002 RMK AO2 SLP165 T00331128
                 56010 =
2018-01-18 14:54 METAR KGED 181954Z AUTO 30012KT 10SM CLR 03/M12 A3002 RMK AO2 SLP166 T00281122 =
2018-01-18 13:54 METAR KGED 181854Z AUTO 30012G17KT 10SM CLR 02/M13 A3003 RMK AO2 SLP169
                 T00171128 =
2018-01-18 12:54 METAR KGED 181754Z AUTO 30011G20KT 10SM CLR 02/M14 A3005 RMK AO2 SLP175
                 T00171139 10022 21067 58031 =
2018-01-18 11:54 METAR KGED 181654Z AUTO 29011G17KT 10SM CLR 01/M13 A3008 RMK AO2 SLP186
                 T00061133 =
2018-01-18 10:54 METAR KGED 181554Z AUTO 30010G17KT 10SM CLR M02/M14 A3013 RMK AO2 SLP204
                 T10171139 =
2018-01-18 09:54 METAR KGED 181454Z AUTO 32010G17KT 10SM CLR M04/M14 A3014 RMK AO2 SLP207
                 T10391139 50009 =
2018-01-18 08:54 METAR KGED 181354Z AUTO VRB04KT 10SM CLR M06/M13 A3016 RMK AO2 SLP212 T10611133
                 =
2018-01-18 07:54 METAR KGED 181254Z AUTO 31005KT 10SM CLR M07/M13 A3017 RMK AO2 SLP216 T10671133
                 =
2018-01-18 06:54 METAR KGED 181154Z AUTO 32008KT 10SM CLR M07/M13 A3011 RMK AO2 SLP197 T10671133
                 11050 21067 50006 =
2018-01-18 05:54 METAR KGED 181054Z AUTO 34005KT 10SM CLR M07/M13 A3013 RMK AO2 SLP204 T10671133
                 =
2018-01-18 04:54 METAR KGED 180954Z AUTO 34005KT 10SM CLR M06/M13 A3016 RMK AO2 SLP213 T10611133
                 =
2018-01-18 03:54 METAR KGED 180854Z AUTO 34007KT 10SM CLR M06/M13 A3010 RMK AO2 SLP192 T10611133
                 56032 =
2018-01-18 02:54 METAR KGED 180754Z AUTO 34012G19KT 10SM CLR M06/M13 A3014 RMK AO2 SLP206
                 T10561133 =

Support USWX by starting your Amazon purchase here.